sensor_id;sensor_type;location;lat;lon;timestamp;P1;durP1;ratioP1;P2;durP2;ratioP2
79054;SDS011;68452;47.186;-1.528;2023-04-24T00:00:05;12.03;;;2.87;;
79054;SDS011;68452;47.186;-1.528;2023-04-24T00:02:32;13.27;;;2.40;;
79054;SDS011;68452;47.186;-1.528;2023-04-24T00:04:58;10.23;;;2.28;;
79054;SDS011;68452;47.186;-1.528;2023-04-24T00:07:27;12.80;;;3.70;;
79054;SDS011;68452;47.186;-1.528;2023-04-24T00:09:52;9.13;;;3.07;;
79054;SDS011;68452;47.186;-1.528;2023-04-24T00:12:19;13.10;;;2.80;;
79054;SDS011;68452;47.186;-1.528;2023-04-24T00:14:45;10.00;;;2.67;;
79054;SDS011;68452;47.186;-1.528;2023-04-24T00:17:11;9.77;;;2.38;;
79054;SDS011;68452;47.186;-1.528;2023-04-24T00:19:37;7.50;;;2.42;;
79054;SDS011;68452;47.186;-1.528;2023-04-24T00:22:03;5.43;;;2.43;;
79054;SDS011;68452;47.186;-1.528;2023-04-24T00:24:29;6.63;;;2.38;;
79054;SDS011;68452;47.186;-1.528;2023-04-24T00:26:55;14.55;;;2.72;;
79054;SDS011;68452;47.186;-1.528;2023-04-24T00:29:21;8.90;;;3.05;;
79054;SDS011;68452;47.186;-1.528;2023-04-24T00:31:47;7.40;;;2.30;;
79054;SDS011;68452;47.186;-1.528;2023-04-24T00:34:13;13.27;;;2.65;;
79054;SDS011;68452;47.186;-1.528;2023-04-24T00:36:39;11.27;;;2.88;;
79054;SDS011;68452;47.186;-1.528;2023-04-24T00:39:05;6.65;;;2.25;;
79054;SDS011;68452;47.186;-1.528;2023-04-24T00:41:33;10.38;;;2.58;;
79054;SDS011;68452;47.186;-1.528;2023-04-24T00:44:00;12.53;;;2.83;;
79054;SDS011;68452;47.186;-1.528;2023-04-24T00:46:26;10.35;;;2.85;;
79054;SDS011;68452;47.186;-1.528;2023-04-24T00:48:52;8.48;;;2.92;;
79054;SDS011;68452;47.186;-1.528;2023-04-24T00:51:18;11.73;;;2.90;;
79054;SDS011;68452;47.186;-1.528;2023-04-24T00:53:44;7.63;;;2.60;;
79054;SDS011;68452;47.186;-1.528;2023-04-24T00:56:10;12.02;;;3.10;;
79054;SDS011;68452;47.186;-1.528;2023-04-24T00:58:36;15.20;;;3.58;;
79054;SDS011;68452;47.186;-1.528;2023-04-24T01:01:02;10.63;;;2.87;;
79054;SDS011;68452;47.186;-1.528;2023-04-24T01:03:32;10.15;;;3.70;;
79054;SDS011;68452;47.186;-1.528;2023-04-24T01:05:58;10.30;;;3.33;;
79054;SDS011;68452;47.186;-1.528;2023-04-24T01:08:25;12.20;;;4.07;;
79054;SDS011;68452;47.186;-1.528;2023-04-24T01:10:53;11.05;;;3.60;;
79054;SDS011;68452;47.186;-1.528;2023-04-24T01:13:20;12.40;;;3.50;;
79054;SDS011;68452;47.186;-1.528;2023-04-24T01:15:46;12.75;;;3.45;;
79054;SDS011;68452;47.186;-1.528;2023-04-24T01:18:12;9.73;;;3.28;;
79054;SDS011;68452;47.186;-1.528;2023-04-24T01:20:41;14.27;;;3.35;;
79054;SDS011;68452;47.186;-1.528;2023-04-24T01:23:10;9.48;;;3.47;;
79054;SDS011;68452;47.186;-1.528;2023-04-24T01:25:36;15.73;;;3.77;;
79054;SDS011;68452;47.186;-1.528;2023-04-24T01:28:02;13.60;;;3.85;;
79054;SDS011;68452;47.186;-1.528;2023-04-24T01:30:28;17.13;;;4.22;;
79054;SDS011;68452;47.186;-1.528;2023-04-24T01:32:55;12.30;;;3.25;;
79054;SDS011;68452;47.186;-1.528;2023-04-24T01:35:21;12.43;;;3.65;;
79054;SDS011;68452;47.186;-1.528;2023-04-24T01:37:47;7.87;;;2.63;;
79054;SDS011;68452;47.186;-1.528;2023-04-24T01:40:13;13.68;;;3.88;;
79054;SDS011;68452;47.186;-1.528;2023-04-24T01:42:40;10.63;;;3.80;;
79054;SDS011;68452;47.186;-1.528;2023-04-24T01:45:06;9.68;;;3.47;;
79054;SDS011;68452;47.186;-1.528;2023-04-24T01:47:35;15.03;;;4.40;;
79054;SDS011;68452;47.186;-1.528;2023-04-24T01:50:02;17.77;;;4.32;;
79054;SDS011;68452;47.186;-1.528;2023-04-24T01:52:28;11.75;;;3.47;;
79054;SDS011;68452;47.186;-1.528;2023-04-24T01:54:56;11.32;;;3.70;;
79054;SDS011;68452;47.186;-1.528;2023-04-24T01:57:25;11.63;;;3.97;;
79054;SDS011;68452;47.186;-1.528;2023-04-24T01:59:51;11.73;;;3.43;;
79054;SDS011;68452;47.186;-1.528;2023-04-24T02:02:17;12.43;;;3.65;;
79054;SDS011;68452;47.186;-1.528;2023-04-24T02:04:43;9.93;;;3.38;;
79054;SDS011;68452;47.186;-1.528;2023-04-24T02:07:09;16.07;;;4.27;;
79054;SDS011;68452;47.186;-1.528;2023-04-24T02:09:35;10.93;;;3.50;;
79054;SDS011;68452;47.186;-1.528;2023-04-24T02:12:01;13.52;;;3.83;;
79054;SDS011;68452;47.186;-1.528;2023-04-24T02:14:26;10.47;;;3.70;;
79054;SDS011;68452;47.186;-1.528;2023-04-24T02:16:52;14.00;;;4.05;;
79054;SDS011;68452;47.186;-1.528;2023-04-24T02:19:18;15.80;;;4.18;;
79054;SDS011;68452;47.186;-1.528;2023-04-24T02:21:44;18.90;;;4.60;;
79054;SDS011;68452;47.186;-1.528;2023-04-24T02:24:10;10.85;;;4.07;;
79054;SDS011;68452;47.186;-1.528;2023-04-24T02:26:36;11.98;;;4.70;;
79054;SDS011;68452;47.186;-1.528;2023-04-24T02:29:02;14.52;;;3.88;;
79054;SDS011;68452;47.186;-1.528;2023-04-24T02:31:28;15.67;;;4.73;;
79054;SDS011;68452;47.186;-1.528;2023-04-24T02:33:53;13.82;;;3.65;;
79054;SDS011;68452;47.186;-1.528;2023-04-24T02:36:19;14.68;;;4.22;;
79054;SDS011;68452;47.186;-1.528;2023-04-24T02:38:46;13.33;;;4.43;;
79054;SDS011;68452;47.186;-1.528;2023-04-24T02:41:11;13.52;;;4.00;;
79054;SDS011;68452;47.186;-1.528;2023-04-24T02:43:37;10.60;;;4.00;;
79054;SDS011;68452;47.186;-1.528;2023-04-24T02:46:03;12.90;;;4.07;;
79054;SDS011;68452;47.186;-1.528;2023-04-24T02:48:29;14.60;;;4.05;;
79054;SDS011;68452;47.186;-1.528;2023-04-24T02:50:55;13.50;;;4.07;;
79054;SDS011;68452;47.186;-1.528;2023-04-24T02:53:22;18.67;;;4.37;;
79054;SDS011;68452;47.186;-1.528;2023-04-24T02:55:48;12.85;;;4.55;;
79054;SDS011;68452;47.186;-1.528;2023-04-24T02:58:14;11.63;;;3.95;;
79054;SDS011;68452;47.186;-1.528;2023-04-24T03:00:40;13.48;;;3.88;;
79054;SDS011;68452;47.186;-1.528;2023-04-24T03:03:06;12.23;;;3.57;;
79054;SDS011;68452;47.186;-1.528;2023-04-24T03:05:32;10.75;;;3.40;;
79054;SDS011;68452;47.186;-1.528;2023-04-24T03:07:58;15.45;;;4.25;;
79054;SDS011;68452;47.186;-1.528;2023-04-24T03:10:24;13.27;;;3.20;;
79054;SDS011;68452;47.186;-1.528;2023-04-24T03:12:50;16.35;;;3.60;;
79054;SDS011;68452;47.186;-1.528;2023-04-24T03:15:16;18.08;;;3.08;;
79054;SDS011;68452;47.186;-1.528;2023-04-24T03:17:42;13.73;;;3.20;;
79054;SDS011;68452;47.186;-1.528;2023-04-24T03:20:08;11.63;;;3.33;;
79054;SDS011;68452;47.186;-1.528;2023-04-24T03:22:34;13.77;;;3.53;;
79054;SDS011;68452;47.186;-1.528;2023-04-24T03:25:00;13.77;;;2.70;;
79054;SDS011;68452;47.186;-1.528;2023-04-24T03:27:26;13.98;;;3.20;;
79054;SDS011;68452;47.186;-1.528;2023-04-24T03:29:52;10.47;;;2.93;;
79054;SDS011;68452;47.186;-1.528;2023-04-24T03:32:20;17.98;;;3.05;;
79054;SDS011;68452;47.186;-1.528;2023-04-24T03:34:49;13.82;;;2.70;;
79054;SDS011;68452;47.186;-1.528;2023-04-24T03:37:15;14.05;;;2.53;;
79054;SDS011;68452;47.186;-1.528;2023-04-24T03:39:42;12.90;;;2.50;;
79054;SDS011;68452;47.186;-1.528;2023-04-24T03:42:08;7.18;;;2.20;;
79054;SDS011;68452;47.186;-1.528;2023-04-24T03:44:34;11.55;;;2.58;;
79054;SDS011;68452;47.186;-1.528;2023-04-24T03:47:00;10.57;;;2.50;;
79054;SDS011;68452;47.186;-1.528;2023-04-24T03:49:26;14.53;;;3.10;;
79054;SDS011;68452;47.186;-1.528;2023-04-24T03:51:52;13.90;;;3.20;;
79054;SDS011;68452;47.186;-1.528;2023-04-24T03:54:18;19.77;;;2.80;;
79054;SDS011;68452;47.186;-1.528;2023-04-24T03:56:44;10.38;;;2.60;;
79054;SDS011;68452;47.186;-1.528;2023-04-24T03:59:10;13.40;;;2.60;;
79054;SDS011;68452;47.186;-1.528;2023-04-24T04:01:36;15.88;;;2.65;;
79054;SDS011;68452;47.186;-1.528;2023-04-24T04:04:02;20.53;;;2.83;;
79054;SDS011;68452;47.186;-1.528;2023-04-24T04:06:29;11.38;;;2.60;;
79054;SDS011;68452;47.186;-1.528;2023-04-24T04:08:56;15.45;;;2.60;;
79054;SDS011;68452;47.186;-1.528;2023-04-24T04:11:22;15.65;;;2.97;;
79054;SDS011;68452;47.186;-1.528;2023-04-24T04:13:48;7.35;;;2.40;;
79054;SDS011;68452;47.186;-1.528;2023-04-24T04:16:14;12.20;;;2.47;;
79054;SDS011;68452;47.186;-1.528;2023-04-24T04:18:42;12.07;;;2.45;;
79054;SDS011;68452;47.186;-1.528;2023-04-24T04:21:08;14.40;;;2.80;;
79054;SDS011;68452;47.186;-1.528;2023-04-24T04:23:34;15.05;;;2.72;;
79054;SDS011;68452;47.186;-1.528;2023-04-24T04:26:00;14.23;;;2.20;;
79054;SDS011;68452;47.186;-1.528;2023-04-24T04:28:26;18.58;;;3.35;;
79054;SDS011;68452;47.186;-1.528;2023-04-24T04:30:52;14.52;;;2.40;;
79054;SDS011;68452;47.186;-1.528;2023-04-24T04:33:23;11.18;;;2.70;;
79054;SDS011;68452;47.186;-1.528;2023-04-24T04:35:49;15.40;;;2.92;;
79054;SDS011;68452;47.186;-1.528;2023-04-24T04:38:21;10.63;;;2.13;;
79054;SDS011;68452;47.186;-1.528;2023-04-24T04:40:47;16.48;;;2.67;;
79054;SDS011;68452;47.186;-1.528;2023-04-24T04:43:13;13.45;;;2.70;;
79054;SDS011;68452;47.186;-1.528;2023-04-24T04:45:41;9.60;;;2.33;;
79054;SDS011;68452;47.186;-1.528;2023-04-24T04:48:08;17.58;;;2.83;;
79054;SDS011;68452;47.186;-1.528;2023-04-24T04:50:37;14.83;;;2.27;;
79054;SDS011;68452;47.186;-1.528;2023-04-24T04:53:03;15.63;;;2.72;;
79054;SDS011;68452;47.186;-1.528;2023-04-24T04:55:28;15.45;;;2.85;;
79054;SDS011;68452;47.186;-1.528;2023-04-24T04:57:55;18.30;;;1.85;;
79054;SDS011;68452;47.186;-1.528;2023-04-24T05:00:21;14.80;;;2.50;;
79054;SDS011;68452;47.186;-1.528;2023-04-24T05:02:50;10.60;;;2.10;;
79054;SDS011;68452;47.186;-1.528;2023-04-24T05:05:16;10.57;;;2.30;;
79054;SDS011;68452;47.186;-1.528;2023-04-24T05:07:42;15.70;;;2.78;;
79054;SDS011;68452;47.186;-1.528;2023-04-24T05:10:09;12.77;;;2.25;;
79054;SDS011;68452;47.186;-1.528;2023-04-24T05:12:35;13.23;;;2.00;;
79054;SDS011;68452;47.186;-1.528;2023-04-24T05:15:01;11.73;;;2.45;;
79054;SDS011;68452;47.186;-1.528;2023-04-24T05:17:28;13.07;;;2.33;;
79054;SDS011;68452;47.186;-1.528;2023-04-24T05:19:54;7.75;;;1.90;;
79054;SDS011;68452;47.186;-1.528;2023-04-24T05:22:20;10.25;;;2.10;;
79054;SDS011;68452;47.186;-1.528;2023-04-24T05:24:46;9.10;;;2.30;;
79054;SDS011;68452;47.186;-1.528;2023-04-24T05:27:13;14.85;;;2.70;;
79054;SDS011;68452;47.186;-1.528;2023-04-24T05:29:38;11.73;;;2.22;;
79054;SDS011;68452;47.186;-1.528;2023-04-24T05:32:05;18.58;;;3.45;;
79054;SDS011;68452;47.186;-1.528;2023-04-24T05:34:30;9.30;;;2.37;;
79054;SDS011;68452;47.186;-1.528;2023-04-24T05:36:57;10.02;;;2.65;;
79054;SDS011;68452;47.186;-1.528;2023-04-24T05:39:23;9.38;;;2.67;;
79054;SDS011;68452;47.186;-1.528;2023-04-24T05:41:50;10.43;;;2.50;;
79054;SDS011;68452;47.186;-1.528;2023-04-24T05:44:16;13.60;;;2.87;;
79054;SDS011;68452;47.186;-1.528;2023-04-24T05:46:42;14.63;;;3.78;;
79054;SDS011;68452;47.186;-1.528;2023-04-24T05:49:08;8.88;;;2.53;;
79054;SDS011;68452;47.186;-1.528;2023-04-24T05:51:34;7.80;;;2.87;;
79054;SDS011;68452;47.186;-1.528;2023-04-24T05:54:00;16.67;;;3.47;;
79054;SDS011;68452;47.186;-1.528;2023-04-24T05:56:27;7.93;;;2.40;;
79054;SDS011;68452;47.186;-1.528;2023-04-24T05:58:54;11.10;;;2.55;;
79054;SDS011;68452;47.186;-1.528;2023-04-24T06:01:20;14.48;;;3.00;;
79054;SDS011;68452;47.186;-1.528;2023-04-24T06:03:46;14.30;;;2.80;;
79054;SDS011;68452;47.186;-1.528;2023-04-24T06:06:12;14.35;;;3.10;;
79054;SDS011;68452;47.186;-1.528;2023-04-24T06:08:38;12.18;;;3.67;;
79054;SDS011;68452;47.186;-1.528;2023-04-24T06:11:04;9.50;;;2.67;;
79054;SDS011;68452;47.186;-1.528;2023-04-24T06:13:30;14.65;;;3.10;;
79054;SDS011;68452;47.186;-1.528;2023-04-24T06:15:55;11.60;;;3.30;;
79054;SDS011;68452;47.186;-1.528;2023-04-24T06:18:21;11.57;;;2.35;;
79054;SDS011;68452;47.186;-1.528;2023-04-24T06:20:47;10.48;;;2.30;;
79054;SDS011;68452;47.186;-1.528;2023-04-24T06:23:13;8.73;;;2.60;;
79054;SDS011;68452;47.186;-1.528;2023-04-24T06:25:39;12.27;;;2.92;;
79054;SDS011;68452;47.186;-1.528;2023-04-24T06:28:04;12.23;;;2.70;;
79054;SDS011;68452;47.186;-1.528;2023-04-24T06:30:30;11.70;;;2.78;;
79054;SDS011;68452;47.186;-1.528;2023-04-24T06:32:56;12.45;;;2.63;;
79054;SDS011;68452;47.186;-1.528;2023-04-24T06:35:22;13.10;;;2.97;;
79054;SDS011;68452;47.186;-1.528;2023-04-24T06:37:48;12.87;;;2.50;;
79054;SDS011;68452;47.186;-1.528;2023-04-24T06:40:14;13.35;;;2.88;;
79054;SDS011;68452;47.186;-1.528;2023-04-24T06:42:40;9.98;;;2.80;;
79054;SDS011;68452;47.186;-1.528;2023-04-24T06:45:07;13.85;;;2.65;;
79054;SDS011;68452;47.186;-1.528;2023-04-24T06:47:33;14.57;;;2.90;;
79054;SDS011;68452;47.186;-1.528;2023-04-24T06:49:59;14.15;;;3.00;;
79054;SDS011;68452;47.186;-1.528;2023-04-24T06:52:25;17.48;;;2.55;;
79054;SDS011;68452;47.186;-1.528;2023-04-24T06:54:51;14.90;;;2.88;;
79054;SDS011;68452;47.186;-1.528;2023-04-24T06:57:17;15.23;;;3.17;;
79054;SDS011;68452;47.186;-1.528;2023-04-24T06:59:43;22.98;;;4.03;;
79054;SDS011;68452;47.186;-1.528;2023-04-24T07:02:09;16.42;;;2.60;;
79054;SDS011;68452;47.186;-1.528;2023-04-24T07:04:35;12.80;;;2.50;;
79054;SDS011;68452;47.186;-1.528;2023-04-24T07:07:02;12.10;;;2.58;;
79054;SDS011;68452;47.186;-1.528;2023-04-24T07:09:29;24.23;;;3.90;;
79054;SDS011;68452;47.186;-1.528;2023-04-24T07:11:55;12.02;;;2.67;;
79054;SDS011;68452;47.186;-1.528;2023-04-24T07:14:21;12.13;;;2.60;;
79054;SDS011;68452;47.186;-1.528;2023-04-24T07:16:47;15.98;;;2.72;;
79054;SDS011;68452;47.186;-1.528;2023-04-24T07:19:13;13.55;;;3.00;;
79054;SDS011;68452;47.186;-1.528;2023-04-24T07:21:39;21.13;;;2.92;;
79054;SDS011;68452;47.186;-1.528;2023-04-24T07:24:05;11.20;;;2.30;;
79054;SDS011;68452;47.186;-1.528;2023-04-24T07:26:35;15.05;;;2.58;;
79054;SDS011;68452;47.186;-1.528;2023-04-24T07:29:04;14.90;;;2.40;;
79054;SDS011;68452;47.186;-1.528;2023-04-24T07:31:30;17.40;;;2.55;;
79054;SDS011;68452;47.186;-1.528;2023-04-24T07:33:56;13.45;;;3.35;;
79054;SDS011;68452;47.186;-1.528;2023-04-24T07:36:23;11.20;;;2.20;;
79054;SDS011;68452;47.186;-1.528;2023-04-24T07:38:51;6.78;;;2.40;;
79054;SDS011;68452;47.186;-1.528;2023-04-24T07:41:18;8.48;;;2.75;;
79054;SDS011;68452;47.186;-1.528;2023-04-24T07:43:44;13.43;;;2.75;;
79054;SDS011;68452;47.186;-1.528;2023-04-24T07:46:10;13.80;;;2.40;;
79054;SDS011;68452;47.186;-1.528;2023-04-24T07:48:36;14.82;;;2.90;;
79054;SDS011;68452;47.186;-1.528;2023-04-24T07:51:02;9.82;;;2.42;;
79054;SDS011;68452;47.186;-1.528;2023-04-24T07:53:28;14.90;;;2.40;;
79054;SDS011;68452;47.186;-1.528;2023-04-24T07:55:55;17.63;;;2.75;;
79054;SDS011;68452;47.186;-1.528;2023-04-24T07:58:21;11.10;;;2.47;;
79054;SDS011;68452;47.186;-1.528;2023-04-24T08:00:47;11.52;;;2.15;;
79054;SDS011;68452;47.186;-1.528;2023-04-24T08:03:13;12.43;;;2.00;;
79054;SDS011;68452;47.186;-1.528;2023-04-24T08:05:39;10.00;;;2.20;;
79054;SDS011;68452;47.186;-1.528;2023-04-24T08:08:06;13.02;;;2.00;;
79054;SDS011;68452;47.186;-1.528;2023-04-24T08:10:33;11.57;;;2.22;;
79054;SDS011;68452;47.186;-1.528;2023-04-24T08:12:59;14.77;;;2.17;;
79054;SDS011;68452;47.186;-1.528;2023-04-24T08:15:25;10.07;;;1.93;;
79054;SDS011;68452;47.186;-1.528;2023-04-24T08:17:52;11.20;;;2.28;;
79054;SDS011;68452;47.186;-1.528;2023-04-24T08:20:18;11.10;;;1.80;;
79054;SDS011;68452;47.186;-1.528;2023-04-24T08:22:44;9.60;;;1.90;;
79054;SDS011;68452;47.186;-1.528;2023-04-24T08:25:12;17.13;;;2.28;;
79054;SDS011;68452;47.186;-1.528;2023-04-24T08:27:38;9.43;;;2.15;;
79054;SDS011;68452;47.186;-1.528;2023-04-24T08:30:04;15.38;;;1.70;;
79054;SDS011;68452;47.186;-1.528;2023-04-24T08:32:31;7.73;;;1.20;;
79054;SDS011;68452;47.186;-1.528;2023-04-24T08:34:57;11.93;;;1.63;;
79054;SDS011;68452;47.186;-1.528;2023-04-24T08:37:25;10.50;;;1.48;;
79054;SDS011;68452;47.186;-1.528;2023-04-24T08:39:51;10.95;;;1.40;;
79054;SDS011;68452;47.186;-1.528;2023-04-24T08:42:18;8.80;;;1.85;;
79054;SDS011;68452;47.186;-1.528;2023-04-24T08:44:46;10.80;;;1.73;;
79054;SDS011;68452;47.186;-1.528;2023-04-24T08:47:13;8.05;;;1.52;;
79054;SDS011;68452;47.186;-1.528;2023-04-24T08:49:41;10.30;;;1.45;;
79054;SDS011;68452;47.186;-1.528;2023-04-24T08:52:07;8.57;;;1.35;;
79054;SDS011;68452;47.186;-1.528;2023-04-24T08:54:34;8.60;;;1.13;;
79054;SDS011;68452;47.186;-1.528;2023-04-24T08:57:01;7.10;;;1.40;;
79054;SDS011;68452;47.186;-1.528;2023-04-24T08:59:29;9.93;;;1.30;;
79054;SDS011;68452;47.186;-1.528;2023-04-24T09:01:56;8.00;;;1.25;;
79054;SDS011;68452;47.186;-1.528;2023-04-24T09:04:23;10.60;;;1.48;;
79054;SDS011;68452;47.186;-1.528;2023-04-24T09:06:57;9.45;;;1.88;;
79054;SDS011;68452;47.186;-1.528;2023-04-24T09:09:24;9.27;;;1.33;;
79054;SDS011;68452;47.186;-1.528;2023-04-24T09:11:51;12.20;;;1.50;;
79054;SDS011;68452;47.186;-1.528;2023-04-24T09:14:19;7.38;;;1.60;;
79054;SDS011;68452;47.186;-1.528;2023-04-24T09:16:46;7.07;;;1.17;;
79054;SDS011;68452;47.186;-1.528;2023-04-24T09:19:12;8.50;;;1.58;;
79054;SDS011;68452;47.186;-1.528;2023-04-24T09:21:39;8.60;;;1.10;;
79054;SDS011;68452;47.186;-1.528;2023-04-24T09:24:08;7.47;;;0.90;;
79054;SDS011;68452;47.186;-1.528;2023-04-24T09:26:45;8.43;;;1.42;;
79054;SDS011;68452;47.186;-1.528;2023-04-24T09:29:15;6.32;;;1.20;;
79054;SDS011;68452;47.186;-1.528;2023-04-24T09:31:42;10.07;;;1.65;;
79054;SDS011;68452;47.186;-1.528;2023-04-24T09:34:10;4.97;;;1.03;;
79054;SDS011;68452;47.186;-1.528;2023-04-24T09:36:38;9.05;;;1.05;;
79054;SDS011;68452;47.186;-1.528;2023-04-24T09:39:10;9.02;;;1.05;;
79054;SDS011;68452;47.186;-1.528;2023-04-24T09:41:50;10.18;;;0.90;;
79054;SDS011;68452;47.186;-1.528;2023-04-24T09:44:18;4.78;;;0.60;;
79054;SDS011;68452;47.186;-1.528;2023-04-24T09:46:48;8.53;;;0.90;;
79054;SDS011;68452;47.186;-1.528;2023-04-24T09:49:23;8.85;;;0.90;;
79054;SDS011;68452;47.186;-1.528;2023-04-24T09:51:50;5.78;;;0.68;;
79054;SDS011;68452;47.186;-1.528;2023-04-24T09:54:20;10.18;;;1.15;;
79054;SDS011;68452;47.186;-1.528;2023-04-24T09:56:48;9.60;;;1.02;;
79054;SDS011;68452;47.186;-1.528;2023-04-24T09:59:15;9.53;;;0.60;;
79054;SDS011;68452;47.186;-1.528;2023-04-24T10:01:42;4.38;;;0.50;;
79054;SDS011;68452;47.186;-1.528;2023-04-24T10:04:17;4.05;;;0.50;;
79054;SDS011;68452;47.186;-1.528;2023-04-24T10:06:44;7.22;;;0.40;;
79054;SDS011;68452;47.186;-1.528;2023-04-24T10:09:10;8.20;;;0.70;;
79054;SDS011;68452;47.186;-1.528;2023-04-24T10:11:38;7.80;;;0.80;;
79054;SDS011;68452;47.186;-1.528;2023-04-24T10:14:07;5.38;;;0.80;;
79054;SDS011;68452;47.186;-1.528;2023-04-24T10:16:37;14.88;;;1.55;;
79054;SDS011;68452;47.186;-1.528;2023-04-24T10:19:05;10.30;;;0.95;;
79054;SDS011;68452;47.186;-1.528;2023-04-24T10:21:32;7.18;;;0.82;;
79054;SDS011;68452;47.186;-1.528;2023-04-24T10:23:59;9.03;;;1.23;;
79054;SDS011;68452;47.186;-1.528;2023-04-24T10:26:28;7.35;;;1.17;;
79054;SDS011;68452;47.186;-1.528;2023-04-24T10:28:54;6.88;;;0.90;;
79054;SDS011;68452;47.186;-1.528;2023-04-24T10:31:23;6.18;;;0.70;;
79054;SDS011;68452;47.186;-1.528;2023-04-24T10:33:49;8.98;;;1.33;;
79054;SDS011;68452;47.186;-1.528;2023-04-24T10:36:16;6.40;;;1.00;;
79054;SDS011;68452;47.186;-1.528;2023-04-24T10:38:43;9.90;;;0.52;;
79054;SDS011;68452;47.186;-1.528;2023-04-24T10:41:12;12.40;;;1.10;;
79054;SDS011;68452;47.186;-1.528;2023-04-24T10:43:44;7.45;;;1.00;;
79054;SDS011;68452;47.186;-1.528;2023-04-24T10:46:16;7.85;;;0.90;;
79054;SDS011;68452;47.186;-1.528;2023-04-24T10:48:55;10.93;;;1.13;;
79054;SDS011;68452;47.186;-1.528;2023-04-24T10:51:23;11.85;;;1.48;;
79054;SDS011;68452;47.186;-1.528;2023-04-24T10:53:51;12.48;;;1.17;;
79054;SDS011;68452;47.186;-1.528;2023-04-24T10:56:17;6.20;;;0.70;;
79054;SDS011;68452;47.186;-1.528;2023-04-24T10:58:50;13.48;;;0.82;;
79054;SDS011;68452;47.186;-1.528;2023-04-24T11:01:38;8.73;;;1.13;;
79054;SDS011;68452;47.186;-1.528;2023-04-24T11:04:03;10.90;;;1.00;;
79054;SDS011;68452;47.186;-1.528;2023-04-24T11:06:32;8.60;;;0.88;;
79054;SDS011;68452;47.186;-1.528;2023-04-24T11:09:10;7.25;;;0.80;;
79054;SDS011;68452;47.186;-1.528;2023-04-24T11:11:44;6.75;;;0.82;;
79054;SDS011;68452;47.186;-1.528;2023-04-24T11:14:13;9.43;;;0.90;;
79054;SDS011;68452;47.186;-1.528;2023-04-24T11:19:17;6.80;;;0.52;;
79054;SDS011;68452;47.186;-1.528;2023-04-24T11:21:54;6.45;;;0.95;;
79054;SDS011;68452;47.186;-1.528;2023-04-24T11:24:32;9.15;;;1.20;;
79054;SDS011;68452;47.186;-1.528;2023-04-24T11:30:29;10.45;;;0.90;;
79054;SDS011;68452;47.186;-1.528;2023-04-24T11:32:35;8.02;;;1.25;;
79054;SDS011;68452;47.186;-1.528;2023-04-24T11:35:08;8.30;;;1.05;;
79054;SDS011;68452;47.186;-1.528;2023-04-24T11:37:43;10.13;;;1.15;;
79054;SDS011;68452;47.186;-1.528;2023-04-24T11:40:12;8.33;;;1.10;;
79054;SDS011;68452;47.186;-1.528;2023-04-24T11:42:41;7.53;;;0.90;;
79054;SDS011;68452;47.186;-1.528;2023-04-24T11:45:15;8.63;;;1.13;;
79054;SDS011;68452;47.186;-1.528;2023-04-24T11:47:43;13.85;;;1.45;;
79054;SDS011;68452;47.186;-1.528;2023-04-24T11:50:14;10.35;;;1.52;;
79054;SDS011;68452;47.186;-1.528;2023-04-24T11:52:41;7.13;;;0.90;;
79054;SDS011;68452;47.186;-1.528;2023-04-24T11:57:44;6.35;;;0.70;;
79054;SDS011;68452;47.186;-1.528;2023-04-24T12:00:23;6.80;;;1.00;;
79054;SDS011;68452;47.186;-1.528;2023-04-24T12:03:03;7.28;;;0.90;;
79054;SDS011;68452;47.186;-1.528;2023-04-24T12:05:30;7.93;;;1.40;;
79054;SDS011;68452;47.186;-1.528;2023-04-24T12:07:56;5.50;;;0.80;;
79054;SDS011;68452;47.186;-1.528;2023-04-24T12:10:23;12.57;;;1.48;;
79054;SDS011;68452;47.186;-1.528;2023-04-24T12:12:50;8.70;;;1.20;;
79054;SDS011;68452;47.186;-1.528;2023-04-24T12:15:17;8.05;;;0.93;;
79054;SDS011;68452;47.186;-1.528;2023-04-24T12:17:44;7.75;;;1.30;;
79054;SDS011;68452;47.186;-1.528;2023-04-24T12:20:10;7.47;;;0.95;;
79054;SDS011;68452;47.186;-1.528;2023-04-24T12:22:50;7.30;;;1.00;;
79054;SDS011;68452;47.186;-1.528;2023-04-24T12:25:21;6.63;;;1.10;;
79054;SDS011;68452;47.186;-1.528;2023-04-24T12:27:55;6.57;;;0.90;;
79054;SDS011;68452;47.186;-1.528;2023-04-24T12:30:34;8.02;;;1.20;;
79054;SDS011;68452;47.186;-1.528;2023-04-24T12:33:03;6.15;;;0.85;;
79054;SDS011;68452;47.186;-1.528;2023-04-24T12:35:30;9.27;;;1.20;;
79054;SDS011;68452;47.186;-1.528;2023-04-24T12:38:07;9.33;;;1.07;;
79054;SDS011;68452;47.186;-1.528;2023-04-24T12:40:35;5.20;;;1.23;;
79054;SDS011;68452;47.186;-1.528;2023-04-24T12:43:01;6.75;;;1.00;;
79054;SDS011;68452;47.186;-1.528;2023-04-24T12:45:26;7.13;;;1.08;;
79054;SDS011;68452;47.186;-1.528;2023-04-24T12:47:53;9.03;;;1.20;;
79054;SDS011;68452;47.186;-1.528;2023-04-24T12:50:18;8.35;;;1.20;;
79054;SDS011;68452;47.186;-1.528;2023-04-24T12:52:44;7.72;;;1.17;;
79054;SDS011;68452;47.186;-1.528;2023-04-24T12:55:10;12.03;;;1.50;;
79054;SDS011;68452;47.186;-1.528;2023-04-24T12:57:37;6.23;;;0.97;;
79054;SDS011;68452;47.186;-1.528;2023-04-24T13:00:06;9.02;;;1.30;;
79054;SDS011;68452;47.186;-1.528;2023-04-24T13:02:33;8.15;;;1.10;;
79054;SDS011;68452;47.186;-1.528;2023-04-24T13:04:59;13.50;;;1.52;;
79054;SDS011;68452;47.186;-1.528;2023-04-24T13:07:26;10.95;;;1.67;;
79054;SDS011;68452;47.186;-1.528;2023-04-24T13:09:52;12.07;;;1.47;;
79054;SDS011;68452;47.186;-1.528;2023-04-24T13:12:19;7.75;;;0.95;;
79054;SDS011;68452;47.186;-1.528;2023-04-24T13:14:45;5.43;;;0.70;;
79054;SDS011;68452;47.186;-1.528;2023-04-24T13:17:12;6.63;;;0.80;;
79054;SDS011;68452;47.186;-1.528;2023-04-24T13:19:38;7.53;;;0.90;;
79054;SDS011;68452;47.186;-1.528;2023-04-24T13:22:05;8.07;;;1.10;;
79054;SDS011;68452;47.186;-1.528;2023-04-24T13:24:32;6.85;;;0.98;;
79054;SDS011;68452;47.186;-1.528;2023-04-24T13:26:58;8.00;;;0.90;;
79054;SDS011;68452;47.186;-1.528;2023-04-24T13:29:25;7.97;;;1.10;;
79054;SDS011;68452;47.186;-1.528;2023-04-24T13:31:51;7.85;;;1.20;;
79054;SDS011;68452;47.186;-1.528;2023-04-24T13:34:21;9.03;;;1.30;;
79054;SDS011;68452;47.186;-1.528;2023-04-24T13:36:52;6.97;;;1.23;;
79054;SDS011;68452;47.186;-1.528;2023-04-24T13:39:18;8.63;;;1.40;;
79054;SDS011;68452;47.186;-1.528;2023-04-24T13:41:45;10.40;;;1.35;;
79054;SDS011;68452;47.186;-1.528;2023-04-24T13:44:13;7.72;;;0.98;;
79054;SDS011;68452;47.186;-1.528;2023-04-24T13:46:43;6.27;;;0.77;;
79054;SDS011;68452;47.186;-1.528;2023-04-24T13:49:10;6.70;;;0.90;;
79054;SDS011;68452;47.186;-1.528;2023-04-24T13:51:37;6.03;;;0.88;;
79054;SDS011;68452;47.186;-1.528;2023-04-24T13:54:03;8.05;;;0.75;;
79054;SDS011;68452;47.186;-1.528;2023-04-24T13:56:29;7.28;;;1.02;;
79054;SDS011;68452;47.186;-1.528;2023-04-24T13:58:55;3.83;;;0.57;;
79054;SDS011;68452;47.186;-1.528;2023-04-24T14:01:21;9.38;;;1.15;;
79054;SDS011;68452;47.186;-1.528;2023-04-24T14:03:51;9.60;;;1.00;;
79054;SDS011;68452;47.186;-1.528;2023-04-24T14:06:18;5.30;;;0.82;;
79054;SDS011;68452;47.186;-1.528;2023-04-24T14:08:44;8.83;;;0.80;;
79054;SDS011;68452;47.186;-1.528;2023-04-24T14:11:10;5.13;;;0.90;;
79054;SDS011;68452;47.186;-1.528;2023-04-24T14:13:39;7.05;;;1.02;;
79054;SDS011;68452;47.186;-1.528;2023-04-24T14:16:06;5.10;;;1.55;;
79054;SDS011;68452;47.186;-1.528;2023-04-24T14:18:32;6.33;;;1.30;;
79054;SDS011;68452;47.186;-1.528;2023-04-24T14:20:58;10.40;;;0.95;;
79054;SDS011;68452;47.186;-1.528;2023-04-24T14:23:24;6.30;;;1.23;;
79054;SDS011;68452;47.186;-1.528;2023-04-24T14:25:50;9.37;;;1.37;;
79054;SDS011;68452;47.186;-1.528;2023-04-24T14:28:17;8.30;;;1.33;;
79054;SDS011;68452;47.186;-1.528;2023-04-24T14:30:47;7.75;;;0.80;;
79054;SDS011;68452;47.186;-1.528;2023-04-24T14:33:13;7.97;;;1.00;;